Terminal Aerodrome Forecast
Issued by NWS Newport/Morehead City, NC

Home | Current Version | Previous Version | Graphics & Text | Print | Product List | Glossary On
Versions: 1 2 3 4 5 6 7 8 9 10 11 12 13 14 15 16 17 18
000
FTUS42 KMHX 202100 AAB
TAFEWN
TAF AMD
KEWN 202150Z 2022/2118 VRB03KT P6SM VCSH SCT030 BKN050
     FM210000 00000KT P6SM SCT030 BKN140
     FM210600 00000KT 4SM BR SCT140
     FM211300 10005KT P6SM SCT030=

USA.gov is the U.S. government's official web portal to all federal, state and local government web resources and services.